sensor_id;sensor_type;location;lat;lon;timestamp;P1;durP1;ratioP1;P2;durP2;ratioP2
16015;SDS011;8112;53.592;10.184;2023-03-25T00:00:17;4.10;;;2.90;;
16015;SDS011;8112;53.592;10.184;2023-03-25T00:05:20;5.57;;;3.10;;
16015;SDS011;8112;53.592;10.184;2023-03-25T00:10:23;6.77;;;3.67;;
16015;SDS011;8112;53.592;10.184;2023-03-25T00:15:25;6.10;;;3.63;;
16015;SDS011;8112;53.592;10.184;2023-03-25T00:20:29;5.93;;;4.23;;
16015;SDS011;8112;53.592;10.184;2023-03-25T00:25:32;6.57;;;4.47;;
16015;SDS011;8112;53.592;10.184;2023-03-25T00:30:34;5.17;;;4.07;;
16015;SDS011;8112;53.592;10.184;2023-03-25T00:35:38;4.33;;;3.93;;
16015;SDS011;8112;53.592;10.184;2023-03-25T00:40:45;5.67;;;3.80;;
16015;SDS011;8112;53.592;10.184;2023-03-25T00:45:47;4.50;;;3.80;;
16015;SDS011;8112;53.592;10.184;2023-03-25T00:50:49;5.10;;;4.00;;
16015;SDS011;8112;53.592;10.184;2023-03-25T00:55:57;7.67;;;4.00;;
16015;SDS011;8112;53.592;10.184;2023-03-25T01:00:58;7.23;;;4.43;;
16015;SDS011;8112;53.592;10.184;2023-03-25T01:06:02;5.77;;;4.73;;
16015;SDS011;8112;53.592;10.184;2023-03-25T01:11:06;5.73;;;4.33;;
16015;SDS011;8112;53.592;10.184;2023-03-25T01:16:17;6.13;;;4.80;;
16015;SDS011;8112;53.592;10.184;2023-03-25T01:21:19;5.20;;;3.70;;
16015;SDS011;8112;53.592;10.184;2023-03-25T01:26:22;5.47;;;4.50;;
16015;SDS011;8112;53.592;10.184;2023-03-25T01:31:24;6.87;;;4.40;;
16015;SDS011;8112;53.592;10.184;2023-03-25T01:36:29;5.23;;;4.23;;
16015;SDS011;8112;53.592;10.184;2023-03-25T01:41:33;5.70;;;4.27;;
16015;SDS011;8112;53.592;10.184;2023-03-25T01:46:37;7.03;;;4.20;;
16015;SDS011;8112;53.592;10.184;2023-03-25T01:51:44;6.87;;;3.40;;
16015;SDS011;8112;53.592;10.184;2023-03-25T01:56:47;6.43;;;4.57;;
16015;SDS011;8112;53.592;10.184;2023-03-25T02:01:51;7.57;;;4.20;;
16015;SDS011;8112;53.592;10.184;2023-03-25T02:06:54;6.17;;;3.80;;
16015;SDS011;8112;53.592;10.184;2023-03-25T02:11:57;8.43;;;3.97;;
16015;SDS011;8112;53.592;10.184;2023-03-25T02:17:01;6.17;;;4.47;;
16015;SDS011;8112;53.592;10.184;2023-03-25T02:27:53;7.03;;;3.93;;
16015;SDS011;8112;53.592;10.184;2023-03-25T02:33:13;6.63;;;4.50;;
16015;SDS011;8112;53.592;10.184;2023-03-25T02:38:34;4.77;;;3.40;;
16015;SDS011;8112;53.592;10.184;2023-03-25T02:43:40;5.87;;;3.93;;
16015;SDS011;8112;53.592;10.184;2023-03-25T02:48:48;4.57;;;3.77;;
16015;SDS011;8112;53.592;10.184;2023-03-25T02:53:59;5.60;;;3.40;;
16015;SDS011;8112;53.592;10.184;2023-03-25T02:59:07;7.43;;;3.23;;
16015;SDS011;8112;53.592;10.184;2023-03-25T03:04:13;7.03;;;3.97;;
16015;SDS011;8112;53.592;10.184;2023-03-25T03:09:24;7.97;;;3.77;;
16015;SDS011;8112;53.592;10.184;2023-03-25T03:14:43;8.23;;;3.70;;
16015;SDS011;8112;53.592;10.184;2023-03-25T03:20:01;9.40;;;4.83;;
16015;SDS011;8112;53.592;10.184;2023-03-25T03:25:17;8.87;;;4.07;;
16015;SDS011;8112;53.592;10.184;2023-03-25T03:30:24;5.40;;;4.00;;
16015;SDS011;8112;53.592;10.184;2023-03-25T03:35:32;6.67;;;3.70;;
16015;SDS011;8112;53.592;10.184;2023-03-25T03:40:40;9.40;;;4.10;;
16015;SDS011;8112;53.592;10.184;2023-03-25T03:45:46;6.57;;;3.83;;
16015;SDS011;8112;53.592;10.184;2023-03-25T03:50:52;6.27;;;3.47;;
16015;SDS011;8112;53.592;10.184;2023-03-25T03:55:58;7.70;;;3.83;;
16015;SDS011;8112;53.592;10.184;2023-03-25T04:01:07;6.53;;;3.60;;
16015;SDS011;8112;53.592;10.184;2023-03-25T04:06:15;6.27;;;3.30;;
16015;SDS011;8112;53.592;10.184;2023-03-25T04:11:25;6.50;;;3.23;;
16015;SDS011;8112;53.592;10.184;2023-03-25T04:16:33;3.77;;;2.97;;
16015;SDS011;8112;53.592;10.184;2023-03-25T04:21:36;5.73;;;3.20;;
16015;SDS011;8112;53.592;10.184;2023-03-25T04:26:39;4.40;;;3.40;;
16015;SDS011;8112;53.592;10.184;2023-03-25T04:31:41;6.10;;;3.40;;
16015;SDS011;8112;53.592;10.184;2023-03-25T04:36:45;4.43;;;3.37;;
16015;SDS011;8112;53.592;10.184;2023-03-25T04:41:50;5.50;;;3.07;;
16015;SDS011;8112;53.592;10.184;2023-03-25T04:46:53;6.87;;;3.43;;
16015;SDS011;8112;53.592;10.184;2023-03-25T04:51:56;4.83;;;3.13;;
16015;SDS011;8112;53.592;10.184;2023-03-25T04:56:59;6.00;;;3.23;;
16015;SDS011;8112;53.592;10.184;2023-03-25T05:02:01;7.90;;;3.10;;
16015;SDS011;8112;53.592;10.184;2023-03-25T05:07:04;5.20;;;3.10;;
16015;SDS011;8112;53.592;10.184;2023-03-25T05:12:08;7.67;;;3.10;;
16015;SDS011;8112;53.592;10.184;2023-03-25T05:17:10;7.10;;;3.40;;
16015;SDS011;8112;53.592;10.184;2023-03-25T05:22:12;3.27;;;2.80;;
16015;SDS011;8112;53.592;10.184;2023-03-25T05:27:15;3.27;;;2.77;;
16015;SDS011;8112;53.592;10.184;2023-03-25T05:32:19;6.90;;;2.90;;
16015;SDS011;8112;53.592;10.184;2023-03-25T05:37:21;6.53;;;3.27;;
16015;SDS011;8112;53.592;10.184;2023-03-25T05:42:24;4.17;;;2.93;;
16015;SDS011;8112;53.592;10.184;2023-03-25T05:47:26;5.30;;;2.87;;
16015;SDS011;8112;53.592;10.184;2023-03-25T05:52:28;4.20;;;3.17;;
16015;SDS011;8112;53.592;10.184;2023-03-25T05:57:31;5.17;;;3.30;;
16015;SDS011;8112;53.592;10.184;2023-03-25T06:02:32;4.03;;;3.30;;
16015;SDS011;8112;53.592;10.184;2023-03-25T06:07:34;3.60;;;2.57;;
16015;SDS011;8112;53.592;10.184;2023-03-25T06:12:38;4.53;;;2.80;;
16015;SDS011;8112;53.592;10.184;2023-03-25T06:17:40;4.83;;;2.70;;
16015;SDS011;8112;53.592;10.184;2023-03-25T06:22:45;6.37;;;3.70;;
16015;SDS011;8112;53.592;10.184;2023-03-25T06:27:49;6.43;;;3.07;;
16015;SDS011;8112;53.592;10.184;2023-03-25T06:32:51;6.93;;;3.87;;
16015;SDS011;8112;53.592;10.184;2023-03-25T06:37:54;8.60;;;3.90;;
16015;SDS011;8112;53.592;10.184;2023-03-25T06:43:04;7.70;;;3.80;;
16015;SDS011;8112;53.592;10.184;2023-03-25T06:48:09;9.23;;;3.90;;
16015;SDS011;8112;53.592;10.184;2023-03-25T06:53:11;8.20;;;4.23;;
16015;SDS011;8112;53.592;10.184;2023-03-25T06:58:14;7.77;;;3.07;;
16015;SDS011;8112;53.592;10.184;2023-03-25T07:03:16;6.93;;;3.90;;
16015;SDS011;8112;53.592;10.184;2023-03-25T07:08:18;7.07;;;3.50;;
16015;SDS011;8112;53.592;10.184;2023-03-25T07:13:21;6.53;;;3.33;;
16015;SDS011;8112;53.592;10.184;2023-03-25T07:18:22;7.53;;;3.40;;
16015;SDS011;8112;53.592;10.184;2023-03-25T07:23:24;3.80;;;2.03;;
16015;SDS011;8112;53.592;10.184;2023-03-25T07:28:27;7.63;;;3.50;;
16015;SDS011;8112;53.592;10.184;2023-03-25T07:33:29;11.20;;;4.17;;
16015;SDS011;8112;53.592;10.184;2023-03-25T07:38:31;9.03;;;3.90;;
16015;SDS011;8112;53.592;10.184;2023-03-25T07:43:34;6.37;;;3.63;;
16015;SDS011;8112;53.592;10.184;2023-03-25T07:49:05;6.77;;;3.97;;
16015;SDS011;8112;53.592;10.184;2023-03-25T07:54:07;7.57;;;4.07;;
16015;SDS011;8112;53.592;10.184;2023-03-25T07:59:10;7.07;;;2.97;;
16015;SDS011;8112;53.592;10.184;2023-03-25T08:04:12;4.57;;;2.47;;
16015;SDS011;8112;53.592;10.184;2023-03-25T08:09:13;5.30;;;2.60;;
16015;SDS011;8112;53.592;10.184;2023-03-25T08:14:16;4.30;;;2.17;;
16015;SDS011;8112;53.592;10.184;2023-03-25T08:19:18;3.67;;;2.40;;
16015;SDS011;8112;53.592;10.184;2023-03-25T08:24:20;5.80;;;2.40;;
16015;SDS011;8112;53.592;10.184;2023-03-25T08:29:25;4.50;;;2.20;;
16015;SDS011;8112;53.592;10.184;2023-03-25T08:34:26;5.60;;;2.30;;
16015;SDS011;8112;53.592;10.184;2023-03-25T08:39:40;4.30;;;2.17;;
16015;SDS011;8112;53.592;10.184;2023-03-25T08:44:45;3.33;;;2.23;;
16015;SDS011;8112;53.592;10.184;2023-03-25T08:49:47;6.43;;;2.30;;
16015;SDS011;8112;53.592;10.184;2023-03-25T08:54:48;5.87;;;1.90;;
16015;SDS011;8112;53.592;10.184;2023-03-25T08:59:52;6.43;;;2.10;;
16015;SDS011;8112;53.592;10.184;2023-03-25T09:04:53;5.80;;;2.20;;
16015;SDS011;8112;53.592;10.184;2023-03-25T09:09:55;2.30;;;1.90;;
16015;SDS011;8112;53.592;10.184;2023-03-25T09:14:58;4.03;;;2.10;;
16015;SDS011;8112;53.592;10.184;2023-03-25T09:20:00;3.97;;;1.80;;
16015;SDS011;8112;53.592;10.184;2023-03-25T09:25:02;4.60;;;2.27;;
16015;SDS011;8112;53.592;10.184;2023-03-25T09:30:07;2.53;;;1.87;;
16015;SDS011;8112;53.592;10.184;2023-03-25T09:35:10;2.43;;;1.67;;
16015;SDS011;8112;53.592;10.184;2023-03-25T09:40:12;4.83;;;2.63;;
16015;SDS011;8112;53.592;10.184;2023-03-25T09:45:19;2.23;;;1.80;;
16015;SDS011;8112;53.592;10.184;2023-03-25T09:50:26;3.87;;;2.13;;
16015;SDS011;8112;53.592;10.184;2023-03-25T09:55:31;2.73;;;1.70;;
16015;SDS011;8112;53.592;10.184;2023-03-25T10:00:38;2.83;;;1.67;;
16015;SDS011;8112;53.592;10.184;2023-03-25T10:05:54;5.87;;;1.50;;
16015;SDS011;8112;53.592;10.184;2023-03-25T10:11:03;4.13;;;1.63;;
16015;SDS011;8112;53.592;10.184;2023-03-25T10:16:12;5.47;;;1.90;;
16015;SDS011;8112;53.592;10.184;2023-03-25T10:21:24;4.83;;;1.03;;
16015;SDS011;8112;53.592;10.184;2023-03-25T10:26:32;4.00;;;1.20;;
16015;SDS011;8112;53.592;10.184;2023-03-25T10:31:45;2.67;;;1.30;;
16015;SDS011;8112;53.592;10.184;2023-03-25T10:36:52;1.73;;;1.10;;
16015;SDS011;8112;53.592;10.184;2023-03-25T10:41:58;2.37;;;1.57;;
16015;SDS011;8112;53.592;10.184;2023-03-25T10:47:03;6.33;;;1.60;;
16015;SDS011;8112;53.592;10.184;2023-03-25T10:52:10;5.00;;;1.80;;
16015;SDS011;8112;53.592;10.184;2023-03-25T10:57:14;4.07;;;1.50;;
16015;SDS011;8112;53.592;10.184;2023-03-25T11:02:22;10.40;;;2.13;;
16015;SDS011;8112;53.592;10.184;2023-03-25T11:07:27;6.10;;;2.10;;
16015;SDS011;8112;53.592;10.184;2023-03-25T11:12:32;4.50;;;1.50;;
16015;SDS011;8112;53.592;10.184;2023-03-25T11:17:35;5.47;;;2.07;;
16015;SDS011;8112;53.592;10.184;2023-03-25T11:22:38;5.50;;;1.80;;
16015;SDS011;8112;53.592;10.184;2023-03-25T11:27:47;4.80;;;1.73;;
16015;SDS011;8112;53.592;10.184;2023-03-25T11:32:58;4.07;;;1.80;;
16015;SDS011;8112;53.592;10.184;2023-03-25T11:38:12;4.10;;;1.80;;
16015;SDS011;8112;53.592;10.184;2023-03-25T11:43:18;4.23;;;1.60;;
16015;SDS011;8112;53.592;10.184;2023-03-25T11:48:23;4.73;;;1.67;;
16015;SDS011;8112;53.592;10.184;2023-03-25T11:53:31;2.50;;;1.43;;
16015;SDS011;8112;53.592;10.184;2023-03-25T11:58:34;4.13;;;1.50;;
16015;SDS011;8112;53.592;10.184;2023-03-25T12:03:41;2.33;;;0.93;;
16015;SDS011;8112;53.592;10.184;2023-03-25T12:08:47;2.57;;;1.33;;
16015;SDS011;8112;53.592;10.184;2023-03-25T12:19:25;2.17;;;1.17;;
16015;SDS011;8112;53.592;10.184;2023-03-25T12:24:43;4.90;;;1.50;;
16015;SDS011;8112;53.592;10.184;2023-03-25T12:29:54;1.73;;;1.10;;
16015;SDS011;8112;53.592;10.184;2023-03-25T12:35:10;4.97;;;1.27;;
16015;SDS011;8112;53.592;10.184;2023-03-25T12:40:26;4.00;;;1.30;;
16015;SDS011;8112;53.592;10.184;2023-03-25T12:45:41;2.23;;;1.30;;
16015;SDS011;8112;53.592;10.184;2023-03-25T12:50:54;3.20;;;1.20;;
16015;SDS011;8112;53.592;10.184;2023-03-25T12:56:06;2.57;;;1.63;;
16015;SDS011;8112;53.592;10.184;2023-03-25T13:01:18;4.97;;;1.77;;
16015;SDS011;8112;53.592;10.184;2023-03-25T13:06:30;1.83;;;1.40;;
16015;SDS011;8112;53.592;10.184;2023-03-25T13:11:40;5.50;;;2.20;;
16015;SDS011;8112;53.592;10.184;2023-03-25T13:16:45;3.40;;;2.00;;
16015;SDS011;8112;53.592;10.184;2023-03-25T13:21:51;4.73;;;2.50;;
16015;SDS011;8112;53.592;10.184;2023-03-25T13:26:57;3.70;;;2.03;;
16015;SDS011;8112;53.592;10.184;2023-03-25T13:32:01;2.77;;;1.97;;
16015;SDS011;8112;53.592;10.184;2023-03-25T13:37:11;2.20;;;2.00;;
16015;SDS011;8112;53.592;10.184;2023-03-25T13:42:19;3.33;;;2.10;;
16015;SDS011;8112;53.592;10.184;2023-03-25T13:47:28;4.70;;;2.90;;
16015;SDS011;8112;53.592;10.184;2023-03-25T13:52:34;3.50;;;1.90;;
16015;SDS011;8112;53.592;10.184;2023-03-25T13:57:58;4.53;;;2.07;;
16015;SDS011;8112;53.592;10.184;2023-03-25T14:03:30;4.33;;;1.80;;
16015;SDS011;8112;53.592;10.184;2023-03-25T14:14:16;6.10;;;2.30;;
16015;SDS011;8112;53.592;10.184;2023-03-25T14:19:23;3.73;;;2.20;;
16015;SDS011;8112;53.592;10.184;2023-03-25T14:24:31;3.47;;;1.90;;
16015;SDS011;8112;53.592;10.184;2023-03-25T14:29:36;3.90;;;2.00;;
16015;SDS011;8112;53.592;10.184;2023-03-25T14:34:43;3.57;;;1.40;;
16015;SDS011;8112;53.592;10.184;2023-03-25T14:39:50;1.83;;;1.50;;
16015;SDS011;8112;53.592;10.184;2023-03-25T14:44:52;4.43;;;1.53;;
16015;SDS011;8112;53.592;10.184;2023-03-25T14:50:03;2.13;;;1.50;;
16015;SDS011;8112;53.592;10.184;2023-03-25T14:55:09;6.00;;;1.90;;
16015;SDS011;8112;53.592;10.184;2023-03-25T15:00:18;4.00;;;1.80;;
16015;SDS011;8112;53.592;10.184;2023-03-25T15:05:25;3.23;;;1.40;;
16015;SDS011;8112;53.592;10.184;2023-03-25T15:10:30;2.50;;;1.90;;
16015;SDS011;8112;53.592;10.184;2023-03-25T15:20:53;6.67;;;2.67;;
16015;SDS011;8112;53.592;10.184;2023-03-25T15:26:05;3.67;;;2.07;;
16015;SDS011;8112;53.592;10.184;2023-03-25T15:31:24;6.63;;;3.10;;
16015;SDS011;8112;53.592;10.184;2023-03-25T15:36:40;5.90;;;2.00;;
16015;SDS011;8112;53.592;10.184;2023-03-25T15:41:57;3.50;;;1.93;;
16015;SDS011;8112;53.592;10.184;2023-03-25T15:47:24;3.23;;;1.73;;
16015;SDS011;8112;53.592;10.184;2023-03-25T15:52:52;2.50;;;1.60;;
16015;SDS011;8112;53.592;10.184;2023-03-25T15:58:25;5.33;;;1.80;;
16015;SDS011;8112;53.592;10.184;2023-03-25T16:03:31;3.37;;;1.80;;
16015;SDS011;8112;53.592;10.184;2023-03-25T16:08:35;2.23;;;1.63;;
16015;SDS011;8112;53.592;10.184;2023-03-25T16:13:41;2.80;;;1.67;;
16015;SDS011;8112;53.592;10.184;2023-03-25T16:18:43;4.23;;;2.20;;
16015;SDS011;8112;53.592;10.184;2023-03-25T16:23:46;6.60;;;3.23;;
16015;SDS011;8112;53.592;10.184;2023-03-25T16:28:54;5.40;;;1.80;;
16015;SDS011;8112;53.592;10.184;2023-03-25T16:34:12;3.33;;;2.00;;
16015;SDS011;8112;53.592;10.184;2023-03-25T16:39:15;3.67;;;1.93;;
16015;SDS011;8112;53.592;10.184;2023-03-25T16:44:20;3.77;;;2.10;;
16015;SDS011;8112;53.592;10.184;2023-03-25T16:49:25;5.43;;;2.20;;
16015;SDS011;8112;53.592;10.184;2023-03-25T16:54:31;3.70;;;2.17;;
16015;SDS011;8112;53.592;10.184;2023-03-25T16:59:38;4.53;;;1.47;;
16015;SDS011;8112;53.592;10.184;2023-03-25T17:04:40;2.10;;;1.30;;
16015;SDS011;8112;53.592;10.184;2023-03-25T17:09:42;1.53;;;1.20;;
16015;SDS011;8112;53.592;10.184;2023-03-25T17:14:47;1.97;;;1.43;;
16015;SDS011;8112;53.592;10.184;2023-03-25T17:19:50;2.60;;;1.40;;
16015;SDS011;8112;53.592;10.184;2023-03-25T17:24:53;1.70;;;1.60;;
16015;SDS011;8112;53.592;10.184;2023-03-25T17:29:58;1.67;;;1.43;;
16015;SDS011;8112;53.592;10.184;2023-03-25T17:35:18;2.13;;;1.60;;
16015;SDS011;8112;53.592;10.184;2023-03-25T17:40:23;1.67;;;1.47;;
16015;SDS011;8112;53.592;10.184;2023-03-25T17:45:29;1.40;;;1.30;;
16015;SDS011;8112;53.592;10.184;2023-03-25T17:50:31;1.67;;;1.20;;
16015;SDS011;8112;53.592;10.184;2023-03-25T17:55:32;1.63;;;1.50;;
16015;SDS011;8112;53.592;10.184;2023-03-25T18:00:35;1.67;;;1.50;;
16015;SDS011;8112;53.592;10.184;2023-03-25T18:05:37;3.70;;;1.90;;
16015;SDS011;8112;53.592;10.184;2023-03-25T18:10:39;1.80;;;1.70;;
16015;SDS011;8112;53.592;10.184;2023-03-25T18:15:43;3.10;;;1.50;;
16015;SDS011;8112;53.592;10.184;2023-03-25T18:20:45;1.77;;;1.67;;
16015;SDS011;8112;53.592;10.184;2023-03-25T18:25:48;2.50;;;1.80;;
16015;SDS011;8112;53.592;10.184;2023-03-25T18:30:52;2.40;;;1.40;;
16015;SDS011;8112;53.592;10.184;2023-03-25T18:35:55;3.27;;;1.77;;
16015;SDS011;8112;53.592;10.184;2023-03-25T18:40:58;3.00;;;1.70;;
16015;SDS011;8112;53.592;10.184;2023-03-25T18:46:02;2.83;;;1.50;;
16015;SDS011;8112;53.592;10.184;2023-03-25T18:51:04;3.77;;;1.60;;
16015;SDS011;8112;53.592;10.184;2023-03-25T18:56:07;5.67;;;2.20;;
16015;SDS011;8112;53.592;10.184;2023-03-25T19:01:11;2.13;;;1.80;;
16015;SDS011;8112;53.592;10.184;2023-03-25T19:06:15;1.93;;;1.63;;
16015;SDS011;8112;53.592;10.184;2023-03-25T19:11:17;2.23;;;1.53;;
16015;SDS011;8112;53.592;10.184;2023-03-25T19:16:20;3.80;;;2.43;;
16015;SDS011;8112;53.592;10.184;2023-03-25T19:21:22;3.27;;;1.80;;
16015;SDS011;8112;53.592;10.184;2023-03-25T19:26:24;2.73;;;1.87;;
16015;SDS011;8112;53.592;10.184;2023-03-25T19:31:27;3.33;;;1.90;;
16015;SDS011;8112;53.592;10.184;2023-03-25T19:36:29;2.50;;;2.20;;
16015;SDS011;8112;53.592;10.184;2023-03-25T19:41:37;2.57;;;1.90;;
16015;SDS011;8112;53.592;10.184;2023-03-25T19:46:43;2.97;;;2.00;;
16015;SDS011;8112;53.592;10.184;2023-03-25T19:51:44;4.03;;;2.40;;
16015;SDS011;8112;53.592;10.184;2023-03-25T19:56:47;3.77;;;2.57;;
16015;SDS011;8112;53.592;10.184;2023-03-25T20:01:50;5.80;;;3.23;;
16015;SDS011;8112;53.592;10.184;2023-03-25T20:06:52;5.43;;;3.00;;
16015;SDS011;8112;53.592;10.184;2023-03-25T20:11:53;4.23;;;2.53;;
16015;SDS011;8112;53.592;10.184;2023-03-25T20:16:57;3.53;;;2.27;;
16015;SDS011;8112;53.592;10.184;2023-03-25T20:21:58;10.83;;;3.70;;
16015;SDS011;8112;53.592;10.184;2023-03-25T20:27:00;9.73;;;3.17;;
16015;SDS011;8112;53.592;10.184;2023-03-25T20:32:03;8.17;;;3.20;;
16015;SDS011;8112;53.592;10.184;2023-03-25T20:37:06;7.90;;;2.80;;
16015;SDS011;8112;53.592;10.184;2023-03-25T20:42:11;8.63;;;3.47;;
16015;SDS011;8112;53.592;10.184;2023-03-25T20:47:14;7.33;;;4.07;;
16015;SDS011;8112;53.592;10.184;2023-03-25T20:52:15;4.30;;;2.00;;
16015;SDS011;8112;53.592;10.184;2023-03-25T20:57:17;8.93;;;3.67;;
16015;SDS011;8112;53.592;10.184;2023-03-25T21:02:20;6.70;;;3.10;;
16015;SDS011;8112;53.592;10.184;2023-03-25T21:07:25;9.23;;;2.87;;
16015;SDS011;8112;53.592;10.184;2023-03-25T21:12:28;4.30;;;2.73;;
16015;SDS011;8112;53.592;10.184;2023-03-25T21:17:31;6.10;;;2.77;;
16015;SDS011;8112;53.592;10.184;2023-03-25T21:22:33;6.57;;;2.70;;
16015;SDS011;8112;53.592;10.184;2023-03-25T21:27:35;7.47;;;3.13;;
16015;SDS011;8112;53.592;10.184;2023-03-25T21:32:38;8.80;;;2.70;;
16015;SDS011;8112;53.592;10.184;2023-03-25T21:37:40;5.80;;;2.87;;
16015;SDS011;8112;53.592;10.184;2023-03-25T21:42:42;11.37;;;3.00;;
16015;SDS011;8112;53.592;10.184;2023-03-25T21:47:46;9.43;;;3.13;;
16015;SDS011;8112;53.592;10.184;2023-03-25T21:52:51;6.07;;;2.60;;
16015;SDS011;8112;53.592;10.184;2023-03-25T21:57:53;7.30;;;2.93;;
16015;SDS011;8112;53.592;10.184;2023-03-25T22:02:56;10.80;;;3.43;;
16015;SDS011;8112;53.592;10.184;2023-03-25T22:07:58;9.60;;;3.10;;
16015;SDS011;8112;53.592;10.184;2023-03-25T22:13:00;9.53;;;3.23;;
16015;SDS011;8112;53.592;10.184;2023-03-25T22:18:03;7.73;;;3.20;;
16015;SDS011;8112;53.592;10.184;2023-03-25T22:23:05;10.80;;;3.13;;
16015;SDS011;8112;53.592;10.184;2023-03-25T22:28:09;8.53;;;2.97;;
16015;SDS011;8112;53.592;10.184;2023-03-25T22:33:12;6.50;;;3.47;;
16015;SDS011;8112;53.592;10.184;2023-03-25T22:38:16;11.37;;;3.80;;
16015;SDS011;8112;53.592;10.184;2023-03-25T22:43:18;10.37;;;3.43;;
16015;SDS011;8112;53.592;10.184;2023-03-25T22:48:22;9.00;;;3.43;;
16015;SDS011;8112;53.592;10.184;2023-03-25T22:53:25;10.77;;;3.30;;
16015;SDS011;8112;53.592;10.184;2023-03-25T22:58:40;16.07;;;4.90;;
16015;SDS011;8112;53.592;10.184;2023-03-25T23:03:46;15.57;;;5.20;;
16015;SDS011;8112;53.592;10.184;2023-03-25T23:08:53;9.40;;;4.17;;
16015;SDS011;8112;53.592;10.184;2023-03-25T23:14:27;9.93;;;4.10;;
16015;SDS011;8112;53.592;10.184;2023-03-25T23:19:31;8.50;;;4.10;;
16015;SDS011;8112;53.592;10.184;2023-03-25T23:24:41;11.43;;;3.30;;
16015;SDS011;8112;53.592;10.184;2023-03-25T23:30:36;5.67;;;2.40;;
16015;SDS011;8112;53.592;10.184;2023-03-25T23:43:09;5.10;;;2.27;;
16015;SDS011;8112;53.592;10.184;2023-03-25T23:48:13;8.90;;;3.07;;
16015;SDS011;8112;53.592;10.184;2023-03-25T23:53:14;6.53;;;3.30;;
16015;SDS011;8112;53.592;10.184;2023-03-25T23:58:18;9.67;;;3.80;;
